sensor_id;sensor_type;location;lat;lon;timestamp;pressure;altitude;pressure_sealevel;temperature;humidity
39823;BME280;25499;53.958;10.970;2022-12-18T07:05:12;102957.97;;;-9.76;100.00
39823;BME280;25499;53.958;10.970;2022-12-18T07:07:37;102966.22;;;-9.77;99.88
39823;BME280;25499;53.958;10.970;2022-12-18T07:10:03;102964.09;;;-9.81;99.83
39823;BME280;25499;53.958;10.970;2022-12-18T07:12:29;102974.84;;;-9.75;99.72
39823;BME280;25499;53.958;10.970;2022-12-18T07:14:54;102979.34;;;-9.65;100.00
39823;BME280;25499;53.958;10.970;2022-12-18T07:17:20;102975.19;;;-9.64;100.00
39823;BME280;25499;53.958;10.970;2022-12-18T07:19:50;102978.75;;;-9.55;100.00
39823;BME280;25499;53.958;10.970;2022-12-18T07:22:15;102981.81;;;-9.58;99.95
39823;BME280;25499;53.958;10.970;2022-12-18T07:24:41;102971.59;;;-9.66;nan
39823;BME280;25499;53.958;10.970;2022-12-18T07:27:06;102960.78;;;-9.72;99.37
39823;BME280;25499;53.958;10.970;2022-12-18T07:29:32;102952.97;;;-9.97;98.84
39823;BME280;25499;53.958;10.970;2022-12-18T07:31:57;102952.44;;;-10.02;98.65
39823;BME280;25499;53.958;10.970;2022-12-18T07:34:22;102956.56;;;-9.95;98.92
39823;BME280;25499;53.958;10.970;2022-12-18T07:36:48;102965.19;;;-9.86;99.06
39823;BME280;25499;53.958;10.970;2022-12-18T07:39:13;102963.38;;;-9.87;99.10
39823;BME280;25499;53.958;10.970;2022-12-18T07:41:39;102969.13;;;-9.81;99.03
39823;BME280;25499;53.958;10.970;2022-12-18T07:44:09;102977.41;;;-9.82;98.99
39823;BME280;25499;53.958;10.970;2022-12-18T07:46:35;102984.97;;;-9.82;99.00
39823;BME280;25499;53.958;10.970;2022-12-18T07:49:00;102986.41;;;-9.84;98.76
39823;BME280;25499;53.958;10.970;2022-12-18T07:51:26;102988.22;;;-9.97;98.53
39823;BME280;25499;53.958;10.970;2022-12-18T07:53:51;102990.38;;;-9.93;98.46
39823;BME280;25499;53.958;10.970;2022-12-18T07:56:17;102988.75;;;-10.00;98.33
39823;BME280;25499;53.958;10.970;2022-12-18T07:58:42;102987.88;;;-10.00;98.16
39823;BME280;25499;53.958;10.970;2022-12-18T08:01:11;102987.84;;;-9.93;98.50
39823;BME280;25499;53.958;10.970;2022-12-18T08:03:38;103000.63;;;-9.91;98.32
39823;BME280;25499;53.958;10.970;2022-12-18T08:06:05;103008.91;;;-9.85;98.67
39823;BME280;25499;53.958;10.970;2022-12-18T08:08:32;103012.28;;;-9.78;98.99
39823;BME280;25499;53.958;10.970;2022-12-18T08:10:58;103008.19;;;-9.77;99.22
39823;BME280;25499;53.958;10.970;2022-12-18T08:13:23;103009.22;;;-9.68;99.14
39823;BME280;25499;53.958;10.970;2022-12-18T08:16:05;103013.91;;;-9.71;99.18
39823;BME280;25499;53.958;10.970;2022-12-18T08:18:32;103016.22;;;-9.58;99.28
39823;BME280;25499;53.958;10.970;2022-12-18T08:21:08;103020.88;;;-9.54;99.27
39823;BME280;25499;53.958;10.970;2022-12-18T08:23:34;103020.19;;;-9.60;99.14
39823;BME280;25499;53.958;10.970;2022-12-18T08:26:00;103017.59;;;-9.46;99.25
39823;BME280;25499;53.958;10.970;2022-12-18T08:28:25;103028.44;;;-9.47;99.23
39823;BME280;25499;53.958;10.970;2022-12-18T08:30:51;103007.88;;;-9.43;99.14
39823;BME280;25499;53.958;10.970;2022-12-18T08:33:17;103008.22;;;-9.40;98.87
39823;BME280;25499;53.958;10.970;2022-12-18T08:35:43;103018.84;;;-9.35;98.91
39823;BME280;25499;53.958;10.970;2022-12-18T08:38:08;103021.16;;;-9.29;98.54
39823;BME280;25499;53.958;10.970;2022-12-18T08:40:33;103027.63;;;-9.24;98.44
39823;BME280;25499;53.958;10.970;2022-12-18T08:42:59;103031.22;;;-9.22;98.33
39823;BME280;25499;53.958;10.970;2022-12-18T08:45:43;103030.06;;;-9.10;98.38
39823;BME280;25499;53.958;10.970;2022-12-18T08:48:08;103027.38;;;-9.11;98.39
39823;BME280;25499;53.958;10.970;2022-12-18T08:50:34;103039.72;;;-8.91;98.27
39823;BME280;25499;53.958;10.970;2022-12-18T08:53:00;103029.56;;;-8.84;98.30
39823;BME280;25499;53.958;10.970;2022-12-18T08:55:25;103032.91;;;-8.69;98.15
39823;BME280;25499;53.958;10.970;2022-12-18T08:57:51;103025.16;;;-8.64;97.99
39823;BME280;25499;53.958;10.970;2022-12-18T09:00:16;103012.69;;;-8.62;97.96
39823;BME280;25499;53.958;10.970;2022-12-18T09:02:42;103010.66;;;-8.57;97.69
39823;BME280;25499;53.958;10.970;2022-12-18T09:05:07;103012.81;;;-8.53;97.65
39823;BME280;25499;53.958;10.970;2022-12-18T09:07:33;103019.16;;;-8.41;97.51
39823;BME280;25499;53.958;10.970;2022-12-18T09:09:58;103016.63;;;-8.41;97.27
39823;BME280;25499;53.958;10.970;2022-12-18T09:12:25;103021.25;;;-8.30;97.16
39823;BME280;25499;53.958;10.970;2022-12-18T09:14:50;103020.50;;;-8.29;97.15
39823;BME280;25499;53.958;10.970;2022-12-18T09:17:16;103023.53;;;-8.24;96.99
39823;BME280;25499;53.958;10.970;2022-12-18T09:19:41;103019.19;;;-8.25;96.69
39823;BME280;25499;53.958;10.970;2022-12-18T09:22:06;103015.78;;;-8.26;96.04
39823;BME280;25499;53.958;10.970;2022-12-18T09:24:33;103018.59;;;-8.15;95.86
39823;BME280;25499;53.958;10.970;2022-12-18T09:26:58;103013.28;;;-8.10;95.37
39823;BME280;25499;53.958;10.970;2022-12-18T09:29:24;103017.56;;;-8.01;95.33
39823;BME280;25499;53.958;10.970;2022-12-18T09:31:49;103037.66;;;-7.71;95.10
39823;BME280;25499;53.958;10.970;2022-12-18T09:34:15;103035.22;;;-7.62;94.72
39823;BME280;25499;53.958;10.970;2022-12-18T09:36:42;103038.00;;;-7.52;94.34
39823;BME280;25499;53.958;10.970;2022-12-18T09:39:07;103038.06;;;-7.43;93.87
39823;BME280;25499;53.958;10.970;2022-12-18T09:52:37;103028.97;;;-5.34;89.12
39823;BME280;25499;53.958;10.970;2022-12-18T09:58:02;102985.53;;;-4.57;82.13
39823;BME280;25499;53.958;10.970;2022-12-18T10:00:30;102997.84;;;-3.31;79.24
39823;BME280;25499;53.958;10.970;2022-12-18T10:03:02;102992.38;;;-2.48;75.53
39823;BME280;25499;53.958;10.970;2022-12-18T10:11:09;102989.94;;;-1.45;67.52
39823;BME280;25499;53.958;10.970;2022-12-18T10:13:52;103005.66;;;-0.88;66.19
39823;BME280;25499;53.958;10.970;2022-12-18T10:19:16;102975.34;;;-1.36;65.42
39823;BME280;25499;53.958;10.970;2022-12-18T10:26:37;102954.00;;;-4.22;70.35
39823;BME280;25499;53.958;10.970;2022-12-18T10:29:10;102958.13;;;-4.96;72.74
39823;BME280;25499;53.958;10.970;2022-12-18T10:31:36;102988.94;;;-5.10;75.08
39823;BME280;25499;53.958;10.970;2022-12-18T10:34:01;103001.81;;;-5.17;76.73
39823;BME280;25499;53.958;10.970;2022-12-18T10:36:27;103008.97;;;-5.31;77.93
39823;BME280;25499;53.958;10.970;2022-12-18T10:38:52;103015.34;;;-5.60;79.11
39823;BME280;25499;53.958;10.970;2022-12-18T10:43:43;103030.00;;;-5.67;80.65
39823;BME280;25499;53.958;10.970;2022-12-18T10:51:29;103029.56;;;-5.36;81.99
39823;BME280;25499;53.958;10.970;2022-12-18T10:53:59;103022.09;;;-5.52;82.24
39823;BME280;25499;53.958;10.970;2022-12-18T10:56:27;103027.78;;;-5.37;82.38
39823;BME280;25499;53.958;10.970;2022-12-18T10:59:08;103023.91;;;-5.43;82.60
39823;BME280;25499;53.958;10.970;2022-12-18T11:01:49;103036.44;;;-5.18;82.78
39823;BME280;25499;53.958;10.970;2022-12-18T11:09:36;103021.50;;;-5.06;81.84
39823;BME280;25499;53.958;10.970;2022-12-18T11:12:08;103041.50;;;-4.83;81.88
39823;BME280;25499;53.958;10.970;2022-12-18T11:14:47;103036.38;;;-4.65;81.41
39823;BME280;25499;53.958;10.970;2022-12-18T11:17:20;103037.56;;;-4.44;80.95
39823;BME280;25499;53.958;10.970;2022-12-18T11:20:03;103023.09;;;-4.63;80.39
39823;BME280;25499;53.958;10.970;2022-12-18T11:22:30;103039.22;;;-4.08;80.22
39823;BME280;25499;53.958;10.970;2022-12-18T11:27:22;103019.94;;;-3.87;79.15
39823;BME280;25499;53.958;10.970;2022-12-18T11:29:49;102996.28;;;-4.51;78.49
39823;BME280;25499;53.958;10.970;2022-12-18T11:34:46;103013.88;;;-4.97;80.29
39823;BME280;25499;53.958;10.970;2022-12-18T11:37:15;103029.81;;;-4.63;80.66
39823;BME280;25499;53.958;10.970;2022-12-18T11:39:57;103035.78;;;-4.09;80.43
39823;BME280;25499;53.958;10.970;2022-12-18T11:42:34;103024.16;;;-3.88;79.39
39823;BME280;25499;53.958;10.970;2022-12-18T11:45:08;103000.03;;;-4.10;78.19
39823;BME280;25499;53.958;10.970;2022-12-18T11:50:18;102990.03;;;-3.90;77.68
39823;BME280;25499;53.958;10.970;2022-12-18T11:52:44;103000.41;;;-4.34;78.18
39823;BME280;25499;53.958;10.970;2022-12-18T11:58:23;102999.13;;;-5.28;81.32
39823;BME280;25499;53.958;10.970;2022-12-18T12:20:45;103037.63;;;-5.40;86.22
39823;BME280;25499;53.958;10.970;2022-12-18T12:23:17;103033.75;;;-5.46;86.31
39823;BME280;25499;53.958;10.970;2022-12-18T12:25:54;103027.44;;;-5.67;86.56
39823;BME280;25499;53.958;10.970;2022-12-18T12:33:50;103007.75;;;-5.52;87.71
39823;BME280;25499;53.958;10.970;2022-12-18T12:39:15;102994.88;;;-5.71;88.51
39823;BME280;25499;53.958;10.970;2022-12-18T12:41:45;102987.13;;;-5.64;89.01
39823;BME280;25499;53.958;10.970;2022-12-18T12:44:44;102994.47;;;-5.67;89.37
39823;BME280;25499;53.958;10.970;2022-12-18T12:47:19;102991.63;;;-5.70;89.56
39823;BME280;25499;53.958;10.970;2022-12-18T12:49:46;102987.91;;;-5.73;89.94
39823;BME280;25499;53.958;10.970;2022-12-18T12:52:37;102988.03;;;-5.72;90.23
39823;BME280;25499;53.958;10.970;2022-12-18T12:55:07;102991.16;;;-5.66;90.24
39823;BME280;25499;53.958;10.970;2022-12-18T12:57:41;102987.16;;;-5.29;90.23
39823;BME280;25499;53.958;10.970;2022-12-18T13:00:16;102972.53;;;-5.40;89.68
39823;BME280;25499;53.958;10.970;2022-12-18T13:03:12;102965.69;;;-5.41;89.51
39823;BME280;25499;53.958;10.970;2022-12-18T13:05:54;102962.38;;;-5.49;89.53
39823;BME280;25499;53.958;10.970;2022-12-18T13:08:27;102964.91;;;-5.57;89.78
39823;BME280;25499;53.958;10.970;2022-12-18T13:10:54;102964.44;;;-5.79;90.15
39823;BME280;25499;53.958;10.970;2022-12-18T13:13:55;102967.13;;;-5.78;90.70
39823;BME280;25499;53.958;10.970;2022-12-18T13:16:25;102960.41;;;-5.86;91.01
39823;BME280;25499;53.958;10.970;2022-12-18T13:18:54;102957.28;;;-5.75;91.22
39823;BME280;25499;53.958;10.970;2022-12-18T13:21:27;102945.50;;;-5.92;91.37
39823;BME280;25499;53.958;10.970;2022-12-18T13:23:53;102940.84;;;-5.87;91.57
39823;BME280;25499;53.958;10.970;2022-12-18T13:31:10;102911.47;;;-5.94;92.10
39823;BME280;25499;53.958;10.970;2022-12-18T13:33:44;102911.34;;;-5.95;92.40
39823;BME280;25499;53.958;10.970;2022-12-18T13:41:40;102906.56;;;-6.01;93.36
39823;BME280;25499;53.958;10.970;2022-12-18T13:44:25;102906.25;;;-5.95;93.73
39823;BME280;25499;53.958;10.970;2022-12-18T13:46:54;102912.38;;;-5.93;93.67
39823;BME280;25499;53.958;10.970;2022-12-18T13:49:23;102901.19;;;-5.95;93.82
39823;BME280;25499;53.958;10.970;2022-12-18T13:51:52;102901.06;;;-5.97;94.20
39823;BME280;25499;53.958;10.970;2022-12-18T13:57:03;102905.22;;;-6.06;94.24
39823;BME280;25499;53.958;10.970;2022-12-18T13:59:37;102924.75;;;-6.05;94.38
39823;BME280;25499;53.958;10.970;2022-12-18T14:02:18;102925.81;;;-6.03;94.41
39823;BME280;25499;53.958;10.970;2022-12-18T14:04:47;102936.84;;;-6.03;94.16
39823;BME280;25499;53.958;10.970;2022-12-18T14:07:22;102926.53;;;-6.04;94.22
39823;BME280;25499;53.958;10.970;2022-12-18T14:09:50;102930.72;;;-6.05;94.22
39823;BME280;25499;53.958;10.970;2022-12-18T14:12:34;102922.66;;;-6.09;94.20
39823;BME280;25499;53.958;10.970;2022-12-18T14:17:56;102914.00;;;-6.20;94.10
39823;BME280;25499;53.958;10.970;2022-12-18T14:20:24;102916.97;;;-6.24;94.33
39823;BME280;25499;53.958;10.970;2022-12-18T14:22:51;102922.31;;;-6.21;94.51
39823;BME280;25499;53.958;10.970;2022-12-18T14:25:20;102918.75;;;-6.23;94.41
39823;BME280;25499;53.958;10.970;2022-12-18T14:28:02;102920.25;;;-6.25;94.48
39823;BME280;25499;53.958;10.970;2022-12-18T14:30:30;102918.25;;;-6.37;94.84
39823;BME280;25499;53.958;10.970;2022-12-18T14:35:51;102934.22;;;-6.38;95.31
39823;BME280;25499;53.958;10.970;2022-12-18T14:38:20;102945.09;;;-6.39;95.53
39823;BME280;25499;53.958;10.970;2022-12-18T14:40:47;102947.16;;;-6.43;95.55
39823;BME280;25499;53.958;10.970;2022-12-18T14:43:20;102957.16;;;-6.45;95.48
39823;BME280;25499;53.958;10.970;2022-12-18T14:45:46;102946.38;;;-6.51;95.52
39823;BME280;25499;53.958;10.970;2022-12-18T14:48:18;102939.81;;;-6.58;95.83
39823;BME280;25499;53.958;10.970;2022-12-18T14:50:45;102932.69;;;-6.53;96.24
39823;BME280;25499;53.958;10.970;2022-12-18T14:53:27;102916.56;;;-6.53;96.39
39823;BME280;25499;53.958;10.970;2022-12-18T14:55:54;102920.31;;;-6.50;96.50
39823;BME280;25499;53.958;10.970;2022-12-18T14:58:19;102930.59;;;-6.48;96.90
39823;BME280;25499;53.958;10.970;2022-12-18T15:00:44;102916.31;;;-6.48;97.03
39823;BME280;25499;53.958;10.970;2022-12-18T15:03:17;102922.06;;;-6.58;97.26
39823;BME280;25499;53.958;10.970;2022-12-18T15:05:44;102917.63;;;-6.51;97.07
39823;BME280;25499;53.958;10.970;2022-12-18T15:08:31;102900.63;;;-6.52;97.42
39823;BME280;25499;53.958;10.970;2022-12-18T15:10:59;102898.72;;;-6.55;97.72
39823;BME280;25499;53.958;10.970;2022-12-18T15:13:25;102900.78;;;-6.51;97.82
39823;BME280;25499;53.958;10.970;2022-12-18T15:15:52;102911.50;;;-6.53;97.90
39823;BME280;25499;53.958;10.970;2022-12-18T15:18:20;102914.34;;;-6.50;98.25
39823;BME280;25499;53.958;10.970;2022-12-18T15:25:46;102913.78;;;-6.48;98.47
39823;BME280;25499;53.958;10.970;2022-12-18T15:28:25;102910.03;;;-6.51;98.51
39823;BME280;25499;53.958;10.970;2022-12-18T15:33:27;102910.94;;;-6.42;98.82
39823;BME280;25499;53.958;10.970;2022-12-18T15:36:00;102905.88;;;-6.42;99.02
39823;BME280;25499;53.958;10.970;2022-12-18T15:38:26;102906.34;;;-6.38;98.90
39823;BME280;25499;53.958;10.970;2022-12-18T15:40:52;102894.22;;;-6.49;99.06
39823;BME280;25499;53.958;10.970;2022-12-18T15:43:21;102886.97;;;-6.37;98.91
39823;BME280;25499;53.958;10.970;2022-12-18T15:46:00;102888.78;;;-6.36;99.15
39823;BME280;25499;53.958;10.970;2022-12-18T15:48:26;102880.84;;;-6.39;99.14
39823;BME280;25499;53.958;10.970;2022-12-18T15:50:53;102894.00;;;-6.26;99.34
39823;BME280;25499;53.958;10.970;2022-12-18T15:53:23;102886.66;;;-6.40;99.03
39823;BME280;25499;53.958;10.970;2022-12-18T15:55:49;102882.94;;;-6.35;99.11
39823;BME280;25499;53.958;10.970;2022-12-18T15:58:33;102874.59;;;-6.43;99.25
39823;BME280;25499;53.958;10.970;2022-12-18T16:00:59;102869.78;;;-6.48;99.33
39823;BME280;25499;53.958;10.970;2022-12-18T16:03:25;102875.22;;;-6.28;99.24
39823;BME280;25499;53.958;10.970;2022-12-18T16:05:50;102861.78;;;-6.27;99.35
39823;BME280;25499;53.958;10.970;2022-12-18T16:08:16;102847.03;;;-6.31;99.27
39823;BME280;25499;53.958;10.970;2022-12-18T16:10:41;102840.63;;;-6.27;99.43
39823;BME280;25499;53.958;10.970;2022-12-18T16:13:10;102840.78;;;-6.17;99.18
39823;BME280;25499;53.958;10.970;2022-12-18T16:15:36;102823.06;;;-6.17;99.28
39823;BME280;25499;53.958;10.970;2022-12-18T16:18:02;102820.38;;;-6.19;99.28
39823;BME280;25499;53.958;10.970;2022-12-18T16:20:27;102815.88;;;-6.21;99.31
39823;BME280;25499;53.958;10.970;2022-12-18T16:22:53;102826.16;;;-6.20;99.40
39823;BME280;25499;53.958;10.970;2022-12-18T16:25:24;102824.81;;;-6.25;99.83
39823;BME280;25499;53.958;10.970;2022-12-18T16:27:50;102830.06;;;-6.06;100.00
39823;BME280;25499;53.958;10.970;2022-12-18T16:30:19;102836.59;;;-5.90;100.00
39823;BME280;25499;53.958;10.970;2022-12-18T16:32:44;102823.63;;;-5.93;100.00
39823;BME280;25499;53.958;10.970;2022-12-18T16:35:14;102817.94;;;-5.91;100.00
39823;BME280;25499;53.958;10.970;2022-12-18T16:37:41;102802.00;;;-5.90;100.00
39823;BME280;25499;53.958;10.970;2022-12-18T16:40:08;102806.00;;;-5.83;100.00
39823;BME280;25499;53.958;10.970;2022-12-18T16:42:36;102810.03;;;-5.76;100.00
39823;BME280;25499;53.958;10.970;2022-12-18T16:45:02;102807.34;;;-5.69;100.00
39823;BME280;25499;53.958;10.970;2022-12-18T16:47:28;102795.09;;;-5.65;100.00
39823;BME280;25499;53.958;10.970;2022-12-18T16:49:53;102796.59;;;-5.67;100.00
39823;BME280;25499;53.958;10.970;2022-12-18T16:52:19;102794.44;;;-5.53;100.00
39823;BME280;25499;53.958;10.970;2022-12-18T16:54:45;102787.75;;;-5.53;100.00
39823;BME280;25499;53.958;10.970;2022-12-18T16:57:13;102796.69;;;-5.48;100.00
39823;BME280;25499;53.958;10.970;2022-12-18T16:59:39;102797.44;;;-5.49;100.00
39823;BME280;25499;53.958;10.970;2022-12-18T17:02:06;102788.63;;;-5.44;100.00
39823;BME280;25499;53.958;10.970;2022-12-18T17:04:35;102781.91;;;-5.43;100.00
39823;BME280;25499;53.958;10.970;2022-12-18T17:07:01;102785.19;;;-5.44;100.00
39823;BME280;25499;53.958;10.970;2022-12-18T17:09:26;102780.84;;;-5.45;100.00
39823;BME280;25499;53.958;10.970;2022-12-18T17:11:52;102779.19;;;-5.36;100.00
39823;BME280;25499;53.958;10.970;2022-12-18T17:14:20;102766.38;;;-5.37;100.00
39823;BME280;25499;53.958;10.970;2022-12-18T17:16:46;102772.81;;;-5.41;100.00
39823;BME280;25499;53.958;10.970;2022-12-18T17:19:13;102778.91;;;-5.39;100.00
39823;BME280;25499;53.958;10.970;2022-12-18T17:21:40;102768.28;;;-5.35;100.00
39823;BME280;25499;53.958;10.970;2022-12-18T17:24:06;102773.50;;;-5.33;100.00
39823;BME280;25499;53.958;10.970;2022-12-18T17:26:31;102776.63;;;-5.27;100.00
39823;BME280;25499;53.958;10.970;2022-12-18T17:28:57;102769.31;;;-5.24;100.00
39823;BME280;25499;53.958;10.970;2022-12-18T17:31:25;102776.28;;;-5.21;100.00
39823;BME280;25499;53.958;10.970;2022-12-18T17:33:51;102785.28;;;-5.25;100.00
39823;BME280;25499;53.958;10.970;2022-12-18T17:36:18;102768.28;;;-5.26;100.00
39823;BME280;25499;53.958;10.970;2022-12-18T17:38:52;102768.22;;;-5.17;100.00
39823;BME280;25499;53.958;10.970;2022-12-18T17:41:18;102761.34;;;-5.18;100.00
39823;BME280;25499;53.958;10.970;2022-12-18T17:43:52;102753.53;;;-5.11;100.00
39823;BME280;25499;53.958;10.970;2022-12-18T17:46:18;102746.41;;;-5.15;100.00
39823;BME280;25499;53.958;10.970;2022-12-18T17:48:44;102737.94;;;-5.25;100.00
39823;BME280;25499;53.958;10.970;2022-12-18T17:51:10;102747.63;;;-5.20;100.00
39823;BME280;25499;53.958;10.970;2022-12-18T17:53:37;102751.19;;;-5.18;100.00
39823;BME280;25499;53.958;10.970;2022-12-18T17:56:06;102743.28;;;-5.21;100.00
39823;BME280;25499;53.958;10.970;2022-12-18T17:58:34;102740.75;;;-5.21;100.00
39823;BME280;25499;53.958;10.970;2022-12-18T18:01:00;102727.03;;;-5.23;99.96
39823;BME280;25499;53.958;10.970;2022-12-18T18:03:26;102714.50;;;-5.22;99.84
39823;BME280;25499;53.958;10.970;2022-12-18T18:05:56;102717.91;;;-5.21;99.85
39823;BME280;25499;53.958;10.970;2022-12-18T18:08:22;102704.03;;;-5.25;99.80
39823;BME280;25499;53.958;10.970;2022-12-18T18:10:47;102707.00;;;-5.20;99.89
39823;BME280;25499;53.958;10.970;2022-12-18T18:13:21;102713.91;;;-5.28;99.84
39823;BME280;25499;53.958;10.970;2022-12-18T18:16:05;102707.94;;;-5.29;99.76
39823;BME280;25499;53.958;10.970;2022-12-18T18:18:31;102712.72;;;-5.32;100.00
39823;BME280;25499;53.958;10.970;2022-12-18T18:20:57;102708.84;;;-5.28;100.00
39823;BME280;25499;53.958;10.970;2022-12-18T18:23:22;102713.91;;;-5.28;100.00
39823;BME280;25499;53.958;10.970;2022-12-18T18:25:51;102703.16;;;-5.26;100.00
39823;BME280;25499;53.958;10.970;2022-12-18T18:28:16;102700.78;;;-5.24;100.00
39823;BME280;25499;53.958;10.970;2022-12-18T18:30:41;102692.22;;;-5.25;99.99
39823;BME280;25499;53.958;10.970;2022-12-18T18:33:07;102701.06;;;-5.21;99.92
39823;BME280;25499;53.958;10.970;2022-12-18T18:35:32;102701.66;;;-5.23;99.95
39823;BME280;25499;53.958;10.970;2022-12-18T18:37:58;102697.44;;;-5.23;99.89
39823;BME280;25499;53.958;10.970;2022-12-18T18:40:23;102696.88;;;-5.20;99.87
39823;BME280;25499;53.958;10.970;2022-12-18T18:42:49;102693.84;;;-5.16;99.66
39823;BME280;25499;53.958;10.970;2022-12-18T18:45:14;102694.47;;;-5.19;99.56
39823;BME280;25499;53.958;10.970;2022-12-18T18:47:40;102690.28;;;-5.18;99.31
39823;BME280;25499;53.958;10.970;2022-12-18T18:50:05;102684.03;;;-5.22;99.21
39823;BME280;25499;53.958;10.970;2022-12-18T18:52:31;102665.38;;;-5.22;99.37
39823;BME280;25499;53.958;10.970;2022-12-18T18:54:56;102654.72;;;-5.18;99.31
39823;BME280;25499;53.958;10.970;2022-12-18T18:57:22;102660.69;;;-5.18;99.16
39823;BME280;25499;53.958;10.970;2022-12-18T18:59:47;102646.38;;;-5.17;98.86
39823;BME280;25499;53.958;10.970;2022-12-18T19:02:14;102647.13;;;-5.18;98.72
39823;BME280;25499;53.958;10.970;2022-12-18T19:04:40;102642.78;;;-5.19;98.81
39823;BME280;25499;53.958;10.970;2022-12-18T19:07:06;102637.31;;;-5.24;98.64
39823;BME280;25499;53.958;10.970;2022-12-18T19:09:32;102640.25;;;-5.19;98.68
39823;BME280;25499;53.958;10.970;2022-12-18T19:11:57;102642.53;;;-5.22;98.62
39823;BME280;25499;53.958;10.970;2022-12-18T19:14:41;102633.59;;;-5.28;98.55
39823;BME280;25499;53.958;10.970;2022-12-18T19:17:08;102631.31;;;-5.25;98.57
39823;BME280;25499;53.958;10.970;2022-12-18T19:19:33;102636.81;;;-5.20;98.40
39823;BME280;25499;53.958;10.970;2022-12-18T19:21:59;102627.88;;;-5.25;98.51
39823;BME280;25499;53.958;10.970;2022-12-18T19:24:25;102633.69;;;-5.17;98.46
39823;BME280;25499;53.958;10.970;2022-12-18T19:26:51;102626.53;;;-5.21;98.24
39823;BME280;25499;53.958;10.970;2022-12-18T19:29:18;102607.00;;;-5.22;98.18
39823;BME280;25499;53.958;10.970;2022-12-18T19:31:44;102619.81;;;-5.21;98.09
39823;BME280;25499;53.958;10.970;2022-12-18T19:34:09;102609.78;;;-5.19;97.99
39823;BME280;25499;53.958;10.970;2022-12-18T19:36:38;102598.75;;;-5.20;97.91
39823;BME280;25499;53.958;10.970;2022-12-18T19:39:10;102602.16;;;-5.19;97.83
39823;BME280;25499;53.958;10.970;2022-12-18T19:41:36;102610.06;;;-5.16;97.77
39823;BME280;25499;53.958;10.970;2022-12-18T19:44:02;102605.63;;;-5.19;97.69
39823;BME280;25499;53.958;10.970;2022-12-18T19:46:28;102610.34;;;-5.13;97.67
39823;BME280;25499;53.958;10.970;2022-12-18T19:48:53;102604.09;;;-5.17;97.49
39823;BME280;25499;53.958;10.970;2022-12-18T19:51:21;102589.75;;;-5.16;97.50
39823;BME280;25499;53.958;10.970;2022-12-18T19:53:47;102594.81;;;-5.16;97.52
39823;BME280;25499;53.958;10.970;2022-12-18T19:56:15;102589.88;;;-5.15;97.55
39823;BME280;25499;53.958;10.970;2022-12-18T19:58:41;102603.00;;;-5.10;97.48
39823;BME280;25499;53.958;10.970;2022-12-18T20:01:07;102588.22;;;-5.14;97.44
39823;BME280;25499;53.958;10.970;2022-12-18T20:03:34;102582.69;;;-5.10;97.52
39823;BME280;25499;53.958;10.970;2022-12-18T20:06:13;102566.69;;;-5.09;97.58
39823;BME280;25499;53.958;10.970;2022-12-18T20:08:39;102557.31;;;-5.10;97.53
39823;BME280;25499;53.958;10.970;2022-12-18T20:11:05;102542.44;;;-5.16;97.47
39823;BME280;25499;53.958;10.970;2022-12-18T20:13:31;102542.69;;;-5.13;97.62
39823;BME280;25499;53.958;10.970;2022-12-18T20:15:56;102535.84;;;-5.14;97.79
39823;BME280;25499;53.958;10.970;2022-12-18T20:18:21;102533.91;;;-5.16;97.79
39823;BME280;25499;53.958;10.970;2022-12-18T20:20:47;102534.31;;;-5.12;98.04
39823;BME280;25499;53.958;10.970;2022-12-18T20:23:12;102525.97;;;-5.11;98.16
39823;BME280;25499;53.958;10.970;2022-12-18T20:25:38;102518.19;;;-5.12;97.98
39823;BME280;25499;53.958;10.970;2022-12-18T20:28:04;102517.03;;;-5.16;98.05
39823;BME280;25499;53.958;10.970;2022-12-18T20:30:29;102504.72;;;-5.11;98.38
39823;BME280;25499;53.958;10.970;2022-12-18T20:32:55;102513.13;;;-5.12;98.36
39823;BME280;25499;53.958;10.970;2022-12-18T20:35:21;102511.59;;;-5.10;98.32
39823;BME280;25499;53.958;10.970;2022-12-18T20:37:46;102511.06;;;-5.16;98.47
39823;BME280;25499;53.958;10.970;2022-12-18T20:40:12;102509.63;;;-5.04;98.48
39823;BME280;25499;53.958;10.970;2022-12-18T20:42:37;102507.09;;;-5.04;98.44
39823;BME280;25499;53.958;10.970;2022-12-18T20:45:03;102506.44;;;-5.01;98.29
39823;BME280;25499;53.958;10.970;2022-12-18T20:47:29;102503.91;;;-5.01;98.47
39823;BME280;25499;53.958;10.970;2022-12-18T20:49:54;102510.78;;;-5.00;98.45
39823;BME280;25499;53.958;10.970;2022-12-18T20:52:20;102503.31;;;-4.99;98.36
39823;BME280;25499;53.958;10.970;2022-12-18T20:54:46;102502.81;;;-4.95;98.29
39823;BME280;25499;53.958;10.970;2022-12-18T20:57:11;102507.00;;;-4.95;98.17
39823;BME280;25499;53.958;10.970;2022-12-18T20:59:37;102508.91;;;-4.93;98.16
39823;BME280;25499;53.958;10.970;2022-12-18T21:02:02;102487.34;;;-4.88;97.94
39823;BME280;25499;53.958;10.970;2022-12-18T21:04:28;102482.66;;;-4.83;97.91
39823;BME280;25499;53.958;10.970;2022-12-18T21:06:53;102490.16;;;-4.84;97.65
39823;BME280;25499;53.958;10.970;2022-12-18T21:09:19;102483.97;;;-4.78;97.54
39823;BME280;25499;53.958;10.970;2022-12-18T21:11:45;102484.84;;;-4.77;97.31
39823;BME280;25499;53.958;10.970;2022-12-18T21:14:29;102474.69;;;-4.77;97.31
39823;BME280;25499;53.958;10.970;2022-12-18T21:16:56;102480.03;;;-4.74;97.10
39823;BME280;25499;53.958;10.970;2022-12-18T21:19:23;102473.81;;;-4.68;96.83
39823;BME280;25499;53.958;10.970;2022-12-18T21:21:50;102467.09;;;-4.67;96.50
39823;BME280;25499;53.958;10.970;2022-12-18T21:24:16;102462.91;;;-4.66;96.47
39823;BME280;25499;53.958;10.970;2022-12-18T21:26:43;102450.72;;;-4.60;96.09
39823;BME280;25499;53.958;10.970;2022-12-18T21:29:17;102450.84;;;-4.59;96.01
39823;BME280;25499;53.958;10.970;2022-12-18T21:31:44;102449.19;;;-4.58;95.84
39823;BME280;25499;53.958;10.970;2022-12-18T21:34:15;102438.41;;;-4.56;95.47